sensor_id;sensor_type;location;lat;lon;timestamp;pressure;altitude;pressure_sealevel;temperature;humidity
6534;BME280;3300;42.698;23.332;2023-08-07T00:02:19;46723.03;;;28.23;44.15
6534;BME280;3300;42.698;23.332;2023-08-07T00:04:46;46721.09;;;28.23;44.25
6534;BME280;3300;42.698;23.332;2023-08-07T00:07:14;46705.44;;;28.23;44.01
6534;BME280;3300;42.698;23.332;2023-08-07T00:09:41;46713.25;;;28.23;44.25
6534;BME280;3300;42.698;23.332;2023-08-07T00:12:08;46703.47;;;28.23;44.36
6534;BME280;3300;42.698;23.332;2023-08-07T00:14:35;46703.47;;;28.23;43.90
6534;BME280;3300;42.698;23.332;2023-08-07T00:17:02;46687.81;;;28.23;44.02
6534;BME280;3300;42.698;23.332;2023-08-07T00:19:29;46717.16;;;28.23;44.42
6534;BME280;3300;42.698;23.332;2023-08-07T00:21:56;46719.13;;;28.23;44.25
6534;BME280;3300;42.698;23.332;2023-08-07T00:24:24;46721.09;;;28.23;44.01
6534;BME280;3300;42.698;23.332;2023-08-07T00:26:51;46697.59;;;28.23;44.45
6534;BME280;3300;42.698;23.332;2023-08-07T00:29:17;46717.16;;;28.23;44.20
6534;BME280;3300;42.698;23.332;2023-08-07T00:31:44;46685.84;;;28.23;44.26
6534;BME280;3300;42.698;23.332;2023-08-07T00:34:11;46705.44;;;28.23;44.19
6534;BME280;3300;42.698;23.332;2023-08-07T00:36:37;46732.81;;;28.23;44.20
6534;BME280;3300;42.698;23.332;2023-08-07T00:39:04;46699.56;;;28.23;44.07
6534;BME280;3300;42.698;23.332;2023-08-07T00:41:32;46740.66;;;28.23;44.45
6534;BME280;3300;42.698;23.332;2023-08-07T00:43:59;46705.44;;;28.23;44.54
6534;BME280;3300;42.698;23.332;2023-08-07T00:46:26;46701.50;;;28.23;44.45
6534;BME280;3300;42.698;23.332;2023-08-07T00:48:53;46699.56;;;28.23;44.22
6534;BME280;3300;42.698;23.332;2023-08-07T00:51:20;46728.91;;;28.23;44.25
6534;BME280;3300;42.698;23.332;2023-08-07T00:53:48;46678.03;;;28.23;44.45
6534;BME280;3300;42.698;23.332;2023-08-07T00:56:15;46719.13;;;28.23;44.09
6534;BME280;3300;42.698;23.332;2023-08-07T00:58:43;46681.94;;;28.23;44.50
6534;BME280;3300;42.698;23.332;2023-08-07T01:01:10;46707.38;;;28.23;44.16
6534;BME280;3300;42.698;23.332;2023-08-07T01:03:37;46721.09;;;28.23;44.13
6534;BME280;3300;42.698;23.332;2023-08-07T01:06:04;46695.66;;;28.23;44.57
6534;BME280;3300;42.698;23.332;2023-08-07T01:08:31;46713.25;;;28.23;44.54
6534;BME280;3300;42.698;23.332;2023-08-07T01:11:10;46709.34;;;28.23;44.23
6534;BME280;3300;42.698;23.332;2023-08-07T01:13:51;46713.25;;;28.23;44.18
6534;BME280;3300;42.698;23.332;2023-08-07T01:16:21;46703.47;;;28.23;44.30
6534;BME280;3300;42.698;23.332;2023-08-07T01:18:49;46721.09;;;28.23;44.20
6534;BME280;3300;42.698;23.332;2023-08-07T01:21:19;46728.91;;;28.23;44.31
6534;BME280;3300;42.698;23.332;2023-08-07T01:23:47;46693.69;;;28.23;44.40
6534;BME280;3300;42.698;23.332;2023-08-07T01:26:14;46721.09;;;28.23;44.69
6534;BME280;3300;42.698;23.332;2023-08-07T01:28:47;46699.56;;;28.23;44.29
6534;BME280;3300;42.698;23.332;2023-08-07T01:31:20;46713.25;;;28.23;44.45
6534;BME280;3300;42.698;23.332;2023-08-07T01:33:54;46711.31;;;28.23;44.41
6534;BME280;3300;42.698;23.332;2023-08-07T01:36:25;46721.09;;;28.23;44.15
6534;BME280;3300;42.698;23.332;2023-08-07T01:38:55;46732.81;;;28.23;44.61
6534;BME280;3300;42.698;23.332;2023-08-07T01:41:24;46689.78;;;28.23;44.64
6534;BME280;3300;42.698;23.332;2023-08-07T01:43:51;46717.16;;;28.23;44.43
6534;BME280;3300;42.698;23.332;2023-08-07T01:46:18;46707.38;;;28.23;44.71
6534;BME280;3300;42.698;23.332;2023-08-07T01:48:44;46726.97;;;28.23;44.71
6534;BME280;3300;42.698;23.332;2023-08-07T01:51:11;46705.44;;;28.23;44.78
6534;BME280;3300;42.698;23.332;2023-08-07T01:53:38;46701.50;;;28.23;44.37
6534;BME280;3300;42.698;23.332;2023-08-07T01:56:06;46717.16;;;28.23;44.38
6534;BME280;3300;42.698;23.332;2023-08-07T01:58:32;46697.59;;;28.23;44.66
6534;BME280;3300;42.698;23.332;2023-08-07T02:00:59;46717.16;;;28.23;44.57
6534;BME280;3300;42.698;23.332;2023-08-07T02:03:26;46689.78;;;28.23;44.32
6534;BME280;3300;42.698;23.332;2023-08-07T02:05:53;46697.59;;;28.23;44.73
6534;BME280;3300;42.698;23.332;2023-08-07T02:08:19;46693.69;;;28.23;44.54
6534;BME280;3300;42.698;23.332;2023-08-07T02:10:46;46711.31;;;28.23;44.39
6534;BME280;3300;42.698;23.332;2023-08-07T02:13:14;46693.69;;;28.23;44.34
6534;BME280;3300;42.698;23.332;2023-08-07T02:15:41;46709.34;;;28.23;44.69
6534;BME280;3300;42.698;23.332;2023-08-07T02:18:07;46725.00;;;28.23;44.73
6534;BME280;3300;42.698;23.332;2023-08-07T02:20:34;46725.00;;;28.23;44.67
6534;BME280;3300;42.698;23.332;2023-08-07T02:23:01;46697.59;;;28.23;44.58
6534;BME280;3300;42.698;23.332;2023-08-07T02:25:27;46693.69;;;28.23;44.38
6534;BME280;3300;42.698;23.332;2023-08-07T02:27:54;46725.00;;;28.23;44.86
6534;BME280;3300;42.698;23.332;2023-08-07T02:30:22;46687.81;;;28.23;44.61
6534;BME280;3300;42.698;23.332;2023-08-07T02:32:49;46723.03;;;28.23;44.84
6534;BME280;3300;42.698;23.332;2023-08-07T02:35:15;46693.69;;;28.23;44.57
6534;BME280;3300;42.698;23.332;2023-08-07T02:37:42;46689.78;;;28.23;44.50
6534;BME280;3300;42.698;23.332;2023-08-07T02:40:10;46719.13;;;28.23;44.65
6534;BME280;3300;42.698;23.332;2023-08-07T02:42:40;46687.81;;;28.23;44.63
6534;BME280;3300;42.698;23.332;2023-08-07T02:45:08;46699.56;;;28.23;44.87
6534;BME280;3300;42.698;23.332;2023-08-07T02:47:36;46709.34;;;28.23;44.54
6534;BME280;3300;42.698;23.332;2023-08-07T02:50:03;46721.09;;;28.23;44.49
6534;BME280;3300;42.698;23.332;2023-08-07T02:52:30;46721.09;;;28.23;44.50
6534;BME280;3300;42.698;23.332;2023-08-07T02:54:56;46717.16;;;28.23;44.82
6534;BME280;3300;42.698;23.332;2023-08-07T02:57:23;46687.81;;;28.23;44.62
6534;BME280;3300;42.698;23.332;2023-08-07T02:59:50;46725.00;;;28.23;44.80
6534;BME280;3300;42.698;23.332;2023-08-07T03:02:17;46725.00;;;28.23;44.84
6534;BME280;3300;42.698;23.332;2023-08-07T03:04:45;46697.59;;;28.23;44.89
6534;BME280;3300;42.698;23.332;2023-08-07T03:07:12;46717.16;;;28.23;44.60
6534;BME280;3300;42.698;23.332;2023-08-07T03:09:38;46717.16;;;28.23;44.91
6534;BME280;3300;42.698;23.332;2023-08-07T03:12:05;46719.13;;;28.23;44.88
6534;BME280;3300;42.698;23.332;2023-08-07T03:14:32;46721.09;;;28.23;44.59
6534;BME280;3300;42.698;23.332;2023-08-07T03:16:59;46697.59;;;28.23;44.73
6534;BME280;3300;42.698;23.332;2023-08-07T03:19:25;46709.34;;;28.23;44.45
6534;BME280;3300;42.698;23.332;2023-08-07T03:21:54;46717.16;;;28.23;44.69
6534;BME280;3300;42.698;23.332;2023-08-07T03:24:20;46713.25;;;28.23;44.79
6534;BME280;3300;42.698;23.332;2023-08-07T03:26:47;46701.50;;;28.23;44.94
6534;BME280;3300;42.698;23.332;2023-08-07T03:29:14;46705.44;;;28.23;44.95
6534;BME280;3300;42.698;23.332;2023-08-07T03:31:41;46705.44;;;28.23;44.54
6534;BME280;3300;42.698;23.332;2023-08-07T03:34:08;46707.38;;;28.23;44.50
6534;BME280;3300;42.698;23.332;2023-08-07T03:36:35;46707.38;;;28.23;44.50
6534;BME280;3300;42.698;23.332;2023-08-07T03:39:03;46740.66;;;28.23;44.98
6534;BME280;3300;42.698;23.332;2023-08-07T03:41:30;46681.94;;;28.23;44.71
6534;BME280;3300;42.698;23.332;2023-08-07T03:43:56;46697.59;;;28.23;44.57
6534;BME280;3300;42.698;23.332;2023-08-07T03:46:23;46707.38;;;28.23;44.60
6534;BME280;3300;42.698;23.332;2023-08-07T03:48:50;46721.09;;;28.23;44.82
6534;BME280;3300;42.698;23.332;2023-08-07T03:51:16;46730.88;;;28.23;44.84
6534;BME280;3300;42.698;23.332;2023-08-07T03:53:43;46715.22;;;28.23;44.93
6534;BME280;3300;42.698;23.332;2023-08-07T03:56:11;46701.50;;;28.23;44.82
6534;BME280;3300;42.698;23.332;2023-08-07T03:58:38;46711.31;;;28.23;45.03
6534;BME280;3300;42.698;23.332;2023-08-07T04:01:05;46719.13;;;28.23;44.61
6534;BME280;3300;42.698;23.332;2023-08-07T04:03:32;46721.09;;;28.23;45.00
6534;BME280;3300;42.698;23.332;2023-08-07T04:05:58;46713.25;;;28.23;45.03
6534;BME280;3300;42.698;23.332;2023-08-07T04:08:25;46723.03;;;28.23;44.55
6534;BME280;3300;42.698;23.332;2023-08-07T04:10:59;46725.00;;;28.23;44.84
6534;BME280;3300;42.698;23.332;2023-08-07T04:13:28;46713.25;;;28.23;44.64
6534;BME280;3300;42.698;23.332;2023-08-07T04:15:55;46689.78;;;28.23;44.68
6534;BME280;3300;42.698;23.332;2023-08-07T04:18:21;46685.84;;;28.23;44.54
6534;BME280;3300;42.698;23.332;2023-08-07T04:20:49;46728.91;;;28.23;44.64
6534;BME280;3300;42.698;23.332;2023-08-07T04:23:16;46723.03;;;28.23;44.90
6534;BME280;3300;42.698;23.332;2023-08-07T04:25:43;46717.16;;;28.23;44.68
6534;BME280;3300;42.698;23.332;2023-08-07T04:28:09;46725.00;;;28.23;44.82
6534;BME280;3300;42.698;23.332;2023-08-07T04:30:38;46711.31;;;28.23;44.68
6534;BME280;3300;42.698;23.332;2023-08-07T04:33:04;46717.16;;;28.23;45.06
6534;BME280;3300;42.698;23.332;2023-08-07T04:35:31;46748.47;;;28.23;45.11
6534;BME280;3300;42.698;23.332;2023-08-07T04:37:57;46711.31;;;28.23;44.61
6534;BME280;3300;42.698;23.332;2023-08-07T04:40:24;46721.09;;;28.23;44.85
6534;BME280;3300;42.698;23.332;2023-08-07T04:42:51;46697.59;;;28.23;45.04
6534;BME280;3300;42.698;23.332;2023-08-07T04:45:18;46728.91;;;28.23;44.71
6534;BME280;3300;42.698;23.332;2023-08-07T04:47:46;46728.91;;;28.23;45.08
6534;BME280;3300;42.698;23.332;2023-08-07T04:50:13;46721.09;;;28.23;44.78
6534;BME280;3300;42.698;23.332;2023-08-07T04:52:39;46695.66;;;28.23;45.00
6534;BME280;3300;42.698;23.332;2023-08-07T04:55:06;46695.66;;;28.23;44.82
6534;BME280;3300;42.698;23.332;2023-08-07T04:57:33;46697.59;;;28.23;44.61
6534;BME280;3300;42.698;23.332;2023-08-07T05:00:00;46705.44;;;28.23;44.75
6534;BME280;3300;42.698;23.332;2023-08-07T05:02:27;46723.03;;;28.23;44.96
6534;BME280;3300;42.698;23.332;2023-08-07T05:04:55;46721.09;;;28.23;44.64
6534;BME280;3300;42.698;23.332;2023-08-07T05:07:21;46728.91;;;28.23;45.13
6534;BME280;3300;42.698;23.332;2023-08-07T05:09:48;46713.25;;;28.23;45.03
6534;BME280;3300;42.698;23.332;2023-08-07T05:12:16;46717.16;;;28.23;44.76
6534;BME280;3300;42.698;23.332;2023-08-07T05:14:42;46705.44;;;28.23;44.94
6534;BME280;3300;42.698;23.332;2023-08-07T05:17:09;46730.88;;;28.23;45.02
6534;BME280;3300;42.698;23.332;2023-08-07T05:19:37;46730.88;;;28.23;44.87
6534;BME280;3300;42.698;23.332;2023-08-07T05:22:05;46685.84;;;28.23;44.81
6534;BME280;3300;42.698;23.332;2023-08-07T05:24:32;46709.34;;;28.23;44.97
6534;BME280;3300;42.698;23.332;2023-08-07T05:27:04;46721.09;;;28.23;44.89
6534;BME280;3300;42.698;23.332;2023-08-07T05:29:31;46732.81;;;28.23;45.04
6534;BME280;3300;42.698;23.332;2023-08-07T05:31:58;46713.25;;;28.23;44.83
6534;BME280;3300;42.698;23.332;2023-08-07T05:34:24;46715.22;;;28.23;44.95
6534;BME280;3300;42.698;23.332;2023-08-07T05:36:51;46713.25;;;28.23;45.12
6534;BME280;3300;42.698;23.332;2023-08-07T05:39:19;46709.34;;;28.23;44.73
6534;BME280;3300;42.698;23.332;2023-08-07T05:41:46;46695.66;;;28.23;44.97
6534;BME280;3300;42.698;23.332;2023-08-07T05:44:12;46701.50;;;28.23;45.03
6534;BME280;3300;42.698;23.332;2023-08-07T05:46:39;46721.09;;;28.23;45.12
6534;BME280;3300;42.698;23.332;2023-08-07T05:49:06;46693.69;;;28.23;45.02
6534;BME280;3300;42.698;23.332;2023-08-07T05:51:32;46728.91;;;28.23;44.96
6534;BME280;3300;42.698;23.332;2023-08-07T05:53:59;46691.72;;;28.23;45.17
6534;BME280;3300;42.698;23.332;2023-08-07T05:56:27;46683.91;;;28.23;44.63
6534;BME280;3300;42.698;23.332;2023-08-07T05:58:54;46723.03;;;28.23;44.57
6534;BME280;3300;42.698;23.332;2023-08-07T06:01:21;46726.97;;;28.23;44.68
6534;BME280;3300;42.698;23.332;2023-08-07T06:03:47;46709.34;;;28.23;44.71
6534;BME280;3300;42.698;23.332;2023-08-07T06:06:14;46709.34;;;28.23;44.85
6534;BME280;3300;42.698;23.332;2023-08-07T06:08:41;46707.38;;;28.23;44.58
6534;BME280;3300;42.698;23.332;2023-08-07T06:11:07;46719.13;;;28.23;45.08
6534;BME280;3300;42.698;23.332;2023-08-07T06:13:35;46726.97;;;28.23;44.62
6534;BME280;3300;42.698;23.332;2023-08-07T06:16:02;46709.34;;;28.23;44.74
6534;BME280;3300;42.698;23.332;2023-08-07T06:18:29;46732.81;;;28.23;44.80
6534;BME280;3300;42.698;23.332;2023-08-07T06:20:56;46713.25;;;28.23;44.87
6534;BME280;3300;42.698;23.332;2023-08-07T06:23:23;46728.91;;;28.23;44.54
6534;BME280;3300;42.698;23.332;2023-08-07T06:25:50;46713.25;;;28.23;44.89
6534;BME280;3300;42.698;23.332;2023-08-07T06:28:16;46711.31;;;28.23;44.77
6534;BME280;3300;42.698;23.332;2023-08-07T06:30:44;46723.03;;;28.23;44.83
6534;BME280;3300;42.698;23.332;2023-08-07T06:33:11;46683.91;;;28.23;44.55
6534;BME280;3300;42.698;23.332;2023-08-07T06:35:38;46709.34;;;28.23;44.61
6534;BME280;3300;42.698;23.332;2023-08-07T06:38:05;46717.16;;;28.23;44.80
6534;BME280;3300;42.698;23.332;2023-08-07T06:40:32;46705.44;;;28.23;44.56
6534;BME280;3300;42.698;23.332;2023-08-07T06:43:01;46726.97;;;28.23;44.73
6534;BME280;3300;42.698;23.332;2023-08-07T06:45:27;46670.19;;;28.23;44.61
6534;BME280;3300;42.698;23.332;2023-08-07T06:47:56;46693.69;;;28.23;44.62
6534;BME280;3300;42.698;23.332;2023-08-07T06:50:24;46717.16;;;28.23;44.52
6534;BME280;3300;42.698;23.332;2023-08-07T06:52:51;46707.38;;;28.23;44.66
6534;BME280;3300;42.698;23.332;2023-08-07T06:55:17;46709.34;;;28.23;44.41
6534;BME280;3300;42.698;23.332;2023-08-07T06:57:44;46697.59;;;28.23;44.65
6534;BME280;3300;42.698;23.332;2023-08-07T07:00:12;46664.31;;;28.23;44.53
6534;BME280;3300;42.698;23.332;2023-08-07T07:02:39;46717.16;;;28.23;44.68
6534;BME280;3300;42.698;23.332;2023-08-07T07:05:07;46705.44;;;28.23;44.66
6534;BME280;3300;42.698;23.332;2023-08-07T07:07:34;46721.09;;;28.23;44.46
6534;BME280;3300;42.698;23.332;2023-08-07T07:10:01;46713.25;;;28.23;44.50
6534;BME280;3300;42.698;23.332;2023-08-07T07:12:28;46719.13;;;28.23;44.76
6534;BME280;3300;42.698;23.332;2023-08-07T07:14:54;46719.13;;;28.23;44.48
6534;BME280;3300;42.698;23.332;2023-08-07T07:17:21;46717.16;;;28.23;44.67
6534;BME280;3300;42.698;23.332;2023-08-07T07:19:48;46717.16;;;28.23;44.48
6534;BME280;3300;42.698;23.332;2023-08-07T07:22:16;46709.34;;;28.23;43.84
6534;BME280;3300;42.698;23.332;2023-08-07T07:24:43;46707.38;;;28.23;43.54
6534;BME280;3300;42.698;23.332;2023-08-07T07:27:09;46723.03;;;28.23;43.29
6534;BME280;3300;42.698;23.332;2023-08-07T07:29:36;46721.09;;;28.23;43.55
6534;BME280;3300;42.698;23.332;2023-08-07T07:32:03;46681.94;;;28.23;43.00
6534;BME280;3300;42.698;23.332;2023-08-07T07:34:30;46701.50;;;28.23;43.34
6534;BME280;3300;42.698;23.332;2023-08-07T07:36:58;46699.56;;;28.23;43.27
6534;BME280;3300;42.698;23.332;2023-08-07T07:39:26;46717.16;;;28.23;42.78
6534;BME280;3300;42.698;23.332;2023-08-07T07:41:53;46699.56;;;28.23;43.00
6534;BME280;3300;42.698;23.332;2023-08-07T07:44:20;46740.66;;;28.23;43.10
6534;BME280;3300;42.698;23.332;2023-08-07T07:46:46;46709.34;;;28.23;42.82
6534;BME280;3300;42.698;23.332;2023-08-07T07:49:13;46697.59;;;28.23;43.30
6534;BME280;3300;42.698;23.332;2023-08-07T07:51:40;46705.44;;;28.23;43.43
6534;BME280;3300;42.698;23.332;2023-08-07T07:54:09;46715.22;;;28.23;43.33
6534;BME280;3300;42.698;23.332;2023-08-07T07:56:38;46721.09;;;28.23;43.39
6534;BME280;3300;42.698;23.332;2023-08-07T07:59:04;46725.00;;;28.23;43.62
6534;BME280;3300;42.698;23.332;2023-08-07T08:01:31;46695.66;;;28.23;43.32
6534;BME280;3300;42.698;23.332;2023-08-07T08:03:58;46713.25;;;28.23;43.34
6534;BME280;3300;42.698;23.332;2023-08-07T08:06:24;46713.25;;;28.23;43.68
6534;BME280;3300;42.698;23.332;2023-08-07T08:08:51;46725.00;;;28.23;43.16
6534;BME280;3300;42.698;23.332;2023-08-07T08:11:18;46719.13;;;28.23;43.37
6534;BME280;3300;42.698;23.332;2023-08-07T08:13:46;46697.59;;;28.23;43.63
6534;BME280;3300;42.698;23.332;2023-08-07T08:16:13;46689.78;;;28.23;43.58
6534;BME280;3300;42.698;23.332;2023-08-07T08:18:40;46695.66;;;28.23;43.56
6534;BME280;3300;42.698;23.332;2023-08-07T08:21:07;46703.47;;;28.23;43.48
6534;BME280;3300;42.698;23.332;2023-08-07T08:23:33;46730.88;;;28.23;43.48
6534;BME280;3300;42.698;23.332;2023-08-07T08:26:00;46709.34;;;28.23;43.39
6534;BME280;3300;42.698;23.332;2023-08-07T08:28:27;46719.13;;;28.23;43.32
6534;BME280;3300;42.698;23.332;2023-08-07T08:30:55;46703.47;;;28.23;43.28
6534;BME280;3300;42.698;23.332;2023-08-07T08:33:22;46705.44;;;28.23;43.35
6534;BME280;3300;42.698;23.332;2023-08-07T08:35:49;46725.00;;;28.23;43.39
6534;BME280;3300;42.698;23.332;2023-08-07T08:38:15;46705.44;;;28.23;42.43
6534;BME280;3300;42.698;23.332;2023-08-07T08:40:44;46685.84;;;28.23;42.92
6534;BME280;3300;42.698;23.332;2023-08-07T08:43:12;46697.59;;;28.23;42.62
6534;BME280;3300;42.698;23.332;2023-08-07T08:45:40;46693.69;;;28.23;42.79
6534;BME280;3300;42.698;23.332;2023-08-07T08:48:11;46689.78;;;28.23;42.62
6534;BME280;3300;42.698;23.332;2023-08-07T08:50:43;46701.50;;;28.23;42.82
6534;BME280;3300;42.698;23.332;2023-08-07T08:53:10;46705.44;;;28.23;42.77
6534;BME280;3300;42.698;23.332;2023-08-07T08:55:39;46701.50;;;28.23;42.12
6534;BME280;3300;42.698;23.332;2023-08-07T08:58:08;46689.78;;;28.23;42.39
6534;BME280;3300;42.698;23.332;2023-08-07T09:00:35;46738.69;;;28.23;42.68
6534;BME280;3300;42.698;23.332;2023-08-07T09:03:03;46685.84;;;28.23;42.36
6534;BME280;3300;42.698;23.332;2023-08-07T09:05:31;46709.34;;;28.23;42.33
6534;BME280;3300;42.698;23.332;2023-08-07T09:10:01;46705.44;;;28.23;42.54
6534;BME280;3300;42.698;23.332;2023-08-07T09:12:31;46721.09;;;28.23;42.64
6534;BME280;3300;42.698;23.332;2023-08-07T09:14:58;46689.78;;;28.23;42.69
6534;BME280;3300;42.698;23.332;2023-08-07T09:17:28;46693.69;;;28.23;42.67
6534;BME280;3300;42.698;23.332;2023-08-07T09:19:55;46697.59;;;28.23;42.82
6534;BME280;3300;42.698;23.332;2023-08-07T09:22:22;46719.13;;;28.23;42.70
6534;BME280;3300;42.698;23.332;2023-08-07T09:24:49;46709.34;;;28.23;42.74
6534;BME280;3300;42.698;23.332;2023-08-07T09:27:17;46721.09;;;28.23;42.68
6534;BME280;3300;42.698;23.332;2023-08-07T09:29:46;46679.97;;;28.23;43.07
6534;BME280;3300;42.698;23.332;2023-08-07T09:32:13;46674.13;;;28.23;42.96
6534;BME280;3300;42.698;23.332;2023-08-07T09:34:40;46689.78;;;28.23;43.17
6534;BME280;3300;42.698;23.332;2023-08-07T09:37:07;46709.34;;;28.23;42.89
6534;BME280;3300;42.698;23.332;2023-08-07T09:39:34;46701.50;;;28.23;42.88
6534;BME280;3300;42.698;23.332;2023-08-07T09:42:01;46728.91;;;28.23;42.91
6534;BME280;3300;42.698;23.332;2023-08-07T09:44:36;46719.13;;;28.23;43.26
6534;BME280;3300;42.698;23.332;2023-08-07T09:47:12;46693.69;;;28.23;43.28
6534;BME280;3300;42.698;23.332;2023-08-07T09:49:40;46721.09;;;28.23;43.25
6534;BME280;3300;42.698;23.332;2023-08-07T09:52:08;46701.50;;;28.23;43.04
6534;BME280;3300;42.698;23.332;2023-08-07T09:54:35;46713.25;;;28.23;43.27
6534;BME280;3300;42.698;23.332;2023-08-07T09:57:03;46715.22;;;28.23;42.73
6534;BME280;3300;42.698;23.332;2023-08-07T09:59:31;46721.09;;;28.23;42.23
6534;BME280;3300;42.698;23.332;2023-08-07T10:02:00;46705.44;;;28.23;42.35
6534;BME280;3300;42.698;23.332;2023-08-07T10:04:28;46732.81;;;28.23;42.42
6534;BME280;3300;42.698;23.332;2023-08-07T10:06:56;46703.47;;;28.23;42.22
6534;BME280;3300;42.698;23.332;2023-08-07T10:09:23;46707.38;;;28.23;42.35
6534;BME280;3300;42.698;23.332;2023-08-07T10:11:50;46685.84;;;28.23;42.36
6534;BME280;3300;42.698;23.332;2023-08-07T10:14:18;46689.78;;;28.23;42.48
6534;BME280;3300;42.698;23.332;2023-08-07T10:16:45;46668.25;;;28.23;42.43
6534;BME280;3300;42.698;23.332;2023-08-07T10:19:14;46707.38;;;28.23;42.81
6534;BME280;3300;42.698;23.332;2023-08-07T10:21:41;46705.44;;;28.23;42.42
6534;BME280;3300;42.698;23.332;2023-08-07T10:24:09;46689.78;;;28.23;42.82
6534;BME280;3300;42.698;23.332;2023-08-07T10:26:41;46693.69;;;28.23;42.68
6534;BME280;3300;42.698;23.332;2023-08-07T10:29:11;46723.03;;;28.23;42.70
6534;BME280;3300;42.698;23.332;2023-08-07T10:31:40;46681.94;;;28.23;42.78
6534;BME280;3300;42.698;23.332;2023-08-07T10:34:09;46697.59;;;28.23;42.72
6534;BME280;3300;42.698;23.332;2023-08-07T10:36:37;46685.84;;;28.23;42.51
6534;BME280;3300;42.698;23.332;2023-08-07T10:39:06;46674.13;;;28.23;42.75
6534;BME280;3300;42.698;23.332;2023-08-07T10:41:38;46681.94;;;28.23;42.90
6534;BME280;3300;42.698;23.332;2023-08-07T10:44:17;46707.38;;;28.23;42.82
6534;BME280;3300;42.698;23.332;2023-08-07T10:46:47;46701.50;;;28.23;42.86
6534;BME280;3300;42.698;23.332;2023-08-07T10:49:30;46693.69;;;28.23;42.82
6534;BME280;3300;42.698;23.332;2023-08-07T10:52:02;46725.00;;;28.23;42.55
6534;BME280;3300;42.698;23.332;2023-08-07T10:54:29;46693.69;;;28.23;42.84
6534;BME280;3300;42.698;23.332;2023-08-07T10:56:55;46711.31;;;28.23;42.77
6534;BME280;3300;42.698;23.332;2023-08-07T10:59:22;46725.00;;;28.23;42.71
6534;BME280;3300;42.698;23.332;2023-08-07T11:01:54;46697.59;;;28.23;42.60
6534;BME280;3300;42.698;23.332;2023-08-07T11:04:22;46697.59;;;28.23;42.82
6534;BME280;3300;42.698;23.332;2023-08-07T11:06:50;46713.25;;;28.23;42.85
6534;BME280;3300;42.698;23.332;2023-08-07T11:09:18;46717.16;;;28.23;42.72
6534;BME280;3300;42.698;23.332;2023-08-07T11:11:46;46732.81;;;28.23;42.66
6534;BME280;3300;42.698;23.332;2023-08-07T11:14:15;46717.16;;;28.23;42.75
6534;BME280;3300;42.698;23.332;2023-08-07T11:16:42;46709.34;;;28.23;42.45
6534;BME280;3300;42.698;23.332;2023-08-07T11:19:09;46695.66;;;28.23;42.91
6534;BME280;3300;42.698;23.332;2023-08-07T11:21:37;46728.91;;;28.23;42.99
6534;BME280;3300;42.698;23.332;2023-08-07T11:24:04;46713.25;;;28.23;42.95
6534;BME280;3300;42.698;23.332;2023-08-07T11:26:32;46705.44;;;28.23;42.88
6534;BME280;3300;42.698;23.332;2023-08-07T11:28:59;46689.78;;;28.23;42.57
6534;BME280;3300;42.698;23.332;2023-08-07T11:31:26;46709.34;;;28.23;42.67
6534;BME280;3300;42.698;23.332;2023-08-07T11:33:54;46693.69;;;28.23;42.81
6534;BME280;3300;42.698;23.332;2023-08-07T11:36:23;46705.44;;;28.23;42.91
6534;BME280;3300;42.698;23.332;2023-08-07T11:38:50;46701.50;;;28.23;42.97
6534;BME280;3300;42.698;23.332;2023-08-07T11:41:17;46697.59;;;28.23;42.96
6534;BME280;3300;42.698;23.332;2023-08-07T11:43:46;46713.25;;;28.23;43.00
6534;BME280;3300;42.698;23.332;2023-08-07T11:46:13;46697.59;;;28.23;42.65
6534;BME280;3300;42.698;23.332;2023-08-07T11:48:42;46681.94;;;28.23;42.58
6534;BME280;3300;42.698;23.332;2023-08-07T11:51:09;46721.09;;;28.23;43.12
6534;BME280;3300;42.698;23.332;2023-08-07T11:53:37;46701.50;;;28.23;42.60
6534;BME280;3300;42.698;23.332;2023-08-07T11:56:07;46717.16;;;28.23;42.67
6534;BME280;3300;42.698;23.332;2023-08-07T11:58:36;46709.34;;;28.23;42.96
6534;BME280;3300;42.698;23.332;2023-08-07T12:01:09;46701.50;;;28.23;42.42
6534;BME280;3300;42.698;23.332;2023-08-07T12:03:38;46705.44;;;28.23;42.86
6534;BME280;3300;42.698;23.332;2023-08-07T12:06:05;46699.56;;;28.23;42.61
6534;BME280;3300;42.698;23.332;2023-08-07T12:08:33;46703.47;;;28.23;42.83
6534;BME280;3300;42.698;23.332;2023-08-07T12:11:02;46697.59;;;28.23;42.65
6534;BME280;3300;42.698;23.332;2023-08-07T12:13:30;46705.44;;;28.23;42.95
6534;BME280;3300;42.698;23.332;2023-08-07T12:15:57;46681.94;;;28.23;42.67
6534;BME280;3300;42.698;23.332;2023-08-07T12:18:26;46678.03;;;28.23;42.74
6534;BME280;3300;42.698;23.332;2023-08-07T12:20:57;46728.91;;;28.23;42.63
6534;BME280;3300;42.698;23.332;2023-08-07T12:23:25;46699.56;;;28.23;42.73
6534;BME280;3300;42.698;23.332;2023-08-07T12:25:52;46691.72;;;28.23;42.77
6534;BME280;3300;42.698;23.332;2023-08-07T12:28:19;46711.31;;;28.23;42.62
6534;BME280;3300;42.698;23.332;2023-08-07T12:30:46;46687.81;;;28.23;42.61
6534;BME280;3300;42.698;23.332;2023-08-07T12:33:14;46689.78;;;28.23;42.35
6534;BME280;3300;42.698;23.332;2023-08-07T12:35:42;46695.66;;;28.23;42.58
6534;BME280;3300;42.698;23.332;2023-08-07T12:38:09;46721.09;;;28.23;42.94
6534;BME280;3300;42.698;23.332;2023-08-07T12:40:39;46668.25;;;28.23;42.60
6534;BME280;3300;42.698;23.332;2023-08-07T12:43:06;46709.34;;;28.23;42.91
6534;BME280;3300;42.698;23.332;2023-08-07T12:45:33;46728.91;;;28.23;42.77
6534;BME280;3300;42.698;23.332;2023-08-07T12:48:00;46695.66;;;28.23;42.74
6534;BME280;3300;42.698;23.332;2023-08-07T12:50:28;46705.44;;;28.23;42.92
6534;BME280;3300;42.698;23.332;2023-08-07T12:52:56;46691.72;;;28.23;43.01
6534;BME280;3300;42.698;23.332;2023-08-07T12:55:24;46691.72;;;28.23;42.91
6534;BME280;3300;42.698;23.332;2023-08-07T12:57:52;46709.34;;;28.23;42.95
6534;BME280;3300;42.698;23.332;2023-08-07T13:00:19;46705.44;;;28.23;42.69
6534;BME280;3300;42.698;23.332;2023-08-07T13:02:47;46732.81;;;28.23;42.61
6534;BME280;3300;42.698;23.332;2023-08-07T13:05:14;46701.50;;;28.23;42.54
6534;BME280;3300;42.698;23.332;2023-08-07T13:07:42;46707.38;;;28.23;42.50
6534;BME280;3300;42.698;23.332;2023-08-07T13:10:12;46701.50;;;28.23;42.85
6534;BME280;3300;42.698;23.332;2023-08-07T13:12:41;46697.59;;;28.23;42.47
6534;BME280;3300;42.698;23.332;2023-08-07T13:15:10;46685.84;;;28.23;42.65